createdAt,value
2018-04-01T00:00:29.952Z,99.90
2018-04-01T00:02:57.697Z,99.90
2018-04-01T00:05:24.812Z,99.90
2018-04-01T00:07:51.794Z,99.90
2018-04-01T00:10:18.768Z,99.90
2018-04-01T00:12:46.500Z,99.90
2018-04-01T00:15:13.531Z,99.90
2018-04-01T00:17:40.499Z,99.90
2018-04-01T00:20:07.457Z,99.90
2018-04-01T00:22:35.193Z,99.90
2018-04-01T00:25:02.162Z,99.90
2018-04-01T00:27:29.900Z,99.90
2018-04-01T00:29:56.871Z,99.90
2018-04-01T00:32:24.622Z,99.90
2018-04-01T00:34:51.581Z,99.90
2018-04-01T00:37:19.312Z,99.90
2018-04-01T00:39:46.297Z,99.90
2018-04-01T00:42:13.266Z,99.90
2018-04-01T00:44:40.237Z,99.90
2018-04-01T00:47:07.197Z,99.90
2018-04-01T00:49:34.166Z,99.90
2018-04-01T00:52:01.907Z,99.90
2018-04-01T00:54:28.866Z,99.90
2018-04-01T00:56:56.595Z,99.90
2018-04-01T00:59:23.566Z,99.90
2018-04-01T01:01:50.527Z,99.90
2018-04-01T01:04:18.245Z,99.90
2018-04-01T01:06:45.219Z,99.90
2018-04-01T01:09:12.176Z,99.90
2018-04-01T01:11:39.910Z,99.90
2018-04-01T01:14:06.880Z,99.90
2018-04-01T01:16:34.620Z,99.90
2018-04-01T01:19:01.620Z,99.90
2018-04-01T01:21:28.575Z,99.90
2018-04-01T01:23:55.549Z,99.90
2018-04-01T01:26:22.592Z,99.90
2018-04-01T01:28:49.549Z,99.90
2018-04-01T01:31:16.510Z,99.90
2018-04-01T01:33:43.472Z,99.90
2018-04-01T01:36:11.214Z,99.90
2018-04-01T01:38:38.180Z,99.90
2018-04-01T01:41:05.918Z,99.90
2018-04-01T01:43:32.891Z,99.90
2018-04-01T01:45:59.862Z,99.90
2018-04-01T01:48:26.888Z,99.90
2018-04-01T01:50:54.618Z,99.90
2018-04-01T01:53:21.668Z,99.90
2018-04-01T01:55:48.626Z,99.90
2018-04-01T01:58:16.364Z,99.90
2018-04-01T02:00:43.355Z,99.90
2018-04-01T02:03:10.321Z,99.90
2018-04-01T02:05:37.316Z,99.90
2018-04-01T02:08:04.278Z,99.90
2018-04-01T02:10:31.278Z,99.90
2018-04-01T02:12:58.266Z,99.90
2018-04-01T02:15:25.990Z,99.90
2018-04-01T02:17:52.950Z,99.90
2018-04-01T02:20:19.937Z,99.90
2018-04-01T02:22:46.898Z,99.90
2018-04-01T02:25:13.889Z,99.90
2018-04-01T02:27:40.846Z,99.90
2018-04-01T02:30:07.844Z,99.90
2018-04-01T02:32:34.858Z,99.90
2018-04-01T02:35:01.815Z,99.90
2018-04-01T02:37:28.778Z,99.90
2018-04-01T02:39:55.742Z,99.90
2018-04-01T02:42:22.708Z,99.90
2018-04-01T02:44:49.702Z,99.90
2018-04-01T02:47:16.676Z,99.90
2018-04-01T02:49:43.640Z,99.90
2018-04-01T02:52:10.600Z,99.90
2018-04-01T02:54:38.328Z,99.90
2018-04-01T02:57:05.298Z,99.90
2018-04-01T02:59:33.040Z,99.90
2018-04-01T03:02:00.218Z,99.90
2018-04-01T03:04:27.183Z,99.90
2018-04-01T03:06:54.173Z,99.90
2018-04-01T03:09:21.159Z,99.90
2018-04-01T03:11:48.114Z,99.90
2018-04-01T03:14:15.088Z,99.90
2018-04-01T03:16:42.058Z,99.90
2018-04-01T03:19:09.020Z,99.90
2018-04-01T03:21:35.984Z,99.90
2018-04-01T03:24:02.958Z,99.90
2018-04-01T03:26:29.918Z,99.90
2018-04-01T03:28:56.877Z,99.90
2018-04-01T03:31:23.841Z,99.90
2018-04-01T03:33:50.815Z,99.90
2018-04-01T03:36:17.783Z,99.90
2018-04-01T03:38:44.745Z,99.90
2018-04-01T03:41:11.702Z,99.90
2018-04-01T03:43:38.717Z,99.90
2018-04-01T03:46:05.735Z,99.90
2018-04-01T03:48:32.715Z,99.90
2018-04-01T03:50:59.665Z,99.90
2018-04-01T03:53:26.652Z,99.90
2018-04-01T03:55:53.617Z,99.90
2018-04-01T03:58:20.621Z,99.90
2018-04-01T04:00:47.585Z,99.90
2018-04-01T04:03:14.558Z,99.90
2018-04-01T04:05:41.527Z,99.90
2018-04-01T04:08:08.505Z,99.90
2018-04-01T04:10:35.494Z,99.90
2018-04-01T04:13:02.537Z,99.90
2018-04-01T04:15:29.511Z,99.90
2018-04-01T04:17:56.479Z,99.90
2018-04-01T04:20:23.520Z,99.90
2018-04-01T04:22:50.474Z,99.90
2018-04-01T04:25:17.477Z,99.90
2018-04-01T04:27:45.174Z,99.90
2018-04-01T04:30:12.134Z,99.90
2018-04-01T04:32:39.147Z,99.90
2018-04-01T04:35:06.125Z,99.90
2018-04-01T04:37:33.093Z,99.90
2018-04-01T04:40:00.821Z,99.90
2018-04-01T04:42:27.804Z,99.90
2018-04-01T04:44:55.529Z,99.90
2018-04-01T04:47:22.566Z,99.90
2018-04-01T04:49:49.592Z,99.90
2018-04-01T04:52:16.554Z,99.90
2018-04-01T04:54:43.527Z,99.90
2018-04-01T04:57:10.482Z,99.90
2018-04-01T04:59:38.210Z,99.90
2018-04-01T05:02:05.227Z,99.90
2018-04-01T05:04:32.185Z,99.90
2018-04-01T05:06:59.150Z,99.90
2018-04-01T05:09:26.112Z,99.90
2018-04-01T05:11:53.148Z,99.90
2018-04-01T05:14:20.112Z,99.90
2018-04-01T05:16:47.115Z,99.90
2018-04-01T05:19:14.152Z,99.90
2018-04-01T05:21:41.121Z,99.90
2018-04-01T05:24:08.095Z,99.90
2018-04-01T05:26:35.821Z,99.90
2018-04-01T05:29:03.573Z,99.90
2018-04-01T05:31:30.566Z,99.90
2018-04-01T05:33:58.300Z,99.90
2018-04-01T05:36:26.042Z,99.90
2018-04-01T05:38:53.008Z,99.90
2018-04-01T05:41:19.982Z,99.90
2018-04-01T05:43:47.713Z,99.90
2018-04-01T05:46:14.690Z,99.90
2018-04-01T05:48:42.438Z,99.90
2018-04-01T05:51:09.485Z,99.90
2018-04-01T05:53:36.449Z,99.90
2018-04-01T05:56:04.213Z,99.90
2018-04-01T05:58:31.999Z,99.90
2018-04-01T06:00:58.991Z,99.90
2018-04-01T06:03:25.991Z,99.90
2018-04-01T06:05:53.718Z,99.90
2018-04-01T06:08:20.674Z,99.90
2018-04-01T06:10:48.431Z,99.90
2018-04-01T06:13:15.437Z,99.90
2018-04-01T06:15:42.437Z,99.90
2018-04-01T06:18:09.407Z,99.90
2018-04-01T06:20:36.434Z,99.90
2018-04-01T06:23:06.081Z,99.90
2018-04-01T06:25:33.324Z,99.90
2018-04-01T06:28:00.300Z,99.90
2018-04-01T06:30:27.277Z,99.90
2018-04-01T06:32:55.010Z,99.90
2018-04-01T06:35:22.373Z,99.90
2018-04-01T06:37:50.834Z,99.90
2018-04-01T06:40:17.809Z,99.90
2018-04-01T06:42:45.539Z,99.90
2018-04-01T06:45:12.519Z,99.90
2018-04-01T06:47:40.250Z,99.90
2018-04-01T06:50:07.230Z,99.90
2018-04-01T06:52:34.957Z,99.90
2018-04-01T06:55:02.009Z,99.90
2018-04-01T06:57:28.961Z,99.90
2018-04-01T06:59:56.256Z,99.90
2018-04-01T07:02:23.223Z,99.90
2018-04-01T07:04:50.270Z,99.90
2018-04-01T07:07:17.237Z,99.90
2018-04-01T07:09:44.198Z,99.90
2018-04-01T07:12:11.235Z,99.90
2018-04-01T07:14:38.168Z,99.90
2018-04-01T07:17:05.148Z,99.90
2018-04-01T07:19:32.154Z,99.90
2018-04-01T07:21:59.157Z,99.90
2018-04-01T07:24:26.174Z,99.90
2018-04-01T07:26:53.145Z,99.90
2018-04-01T07:29:20.277Z,99.90
2018-04-01T07:31:47.326Z,99.90
2018-04-01T07:34:15.113Z,99.90
2018-04-01T07:36:42.085Z,99.90
2018-04-01T07:39:09.086Z,99.90
2018-04-01T07:41:36.110Z,99.90
2018-04-01T07:44:03.836Z,99.90
2018-04-01T07:46:30.822Z,99.90
2018-04-01T07:48:57.805Z,99.90
2018-04-01T07:51:24.809Z,99.90
2018-04-01T07:53:51.769Z,99.90
2018-04-01T07:56:19.393Z,99.90
2018-04-01T07:58:46.347Z,99.90
2018-04-01T08:01:13.305Z,99.90
2018-04-01T08:03:40.338Z,99.90
2018-04-01T08:06:07.310Z,99.90
2018-04-01T08:08:34.287Z,99.90
2018-04-01T08:11:01.301Z,99.90
2018-04-01T08:13:28.280Z,99.90
2018-04-01T08:15:56.134Z,99.90
2018-04-01T08:18:23.121Z,99.90
2018-04-01T08:20:50.081Z,99.90
2018-04-01T08:23:17.314Z,99.90
2018-04-01T08:25:44.732Z,99.90
2018-04-01T08:28:11.708Z,99.90
2018-04-01T08:30:38.779Z,99.90
2018-04-01T08:33:05.919Z,99.90
2018-04-01T08:35:32.896Z,99.90
2018-04-01T08:37:59.899Z,99.90
2018-04-01T08:40:26.865Z,99.90
2018-04-01T08:42:53.831Z,99.80
2018-04-01T08:45:21.796Z,99.90
2018-04-01T08:47:48.917Z,99.50
2018-04-01T08:50:15.894Z,99.10
2018-04-01T08:52:43.625Z,98.90
2018-04-01T08:55:10.724Z,98.90
2018-04-01T08:57:37.705Z,98.50
2018-04-01T09:00:04.750Z,97.30
2018-04-01T09:02:31.702Z,98.50
2018-04-01T09:04:58.788Z,99.30
2018-04-01T09:07:25.762Z,99.40
2018-04-01T09:09:52.734Z,96.80
2018-04-01T09:12:19.702Z,97.20
2018-04-01T09:14:46.718Z,97.00
2018-04-01T09:17:14.061Z,96.40
2018-04-01T09:19:41.038Z,96.30
2018-04-01T09:22:08.046Z,95.60
2018-04-01T09:24:35.030Z,94.50
2018-04-01T09:27:01.995Z,94.60
2018-04-01T09:29:29.048Z,95.50
2018-04-01T09:31:56.173Z,95.40
2018-04-01T09:34:23.156Z,96.30
2018-04-01T09:36:50.916Z,95.90
2018-04-01T09:39:17.869Z,95.90
2018-04-01T09:41:44.863Z,95.60
2018-04-01T09:44:11.843Z,95.10
2018-04-01T09:46:38.799Z,95.20
2018-04-01T09:49:06.530Z,94.30
2018-04-01T09:51:33.475Z,94.30
2018-04-01T09:54:00.430Z,93.10
2018-04-01T09:56:27.403Z,92.90
2018-04-01T09:58:54.479Z,90.80
2018-04-01T10:01:22.061Z,87.30
2018-04-01T10:03:50.440Z,87.50
2018-04-01T10:06:18.666Z,89.40
2018-04-01T10:08:46.486Z,89.40
2018-04-01T10:11:14.134Z,89.70
2018-04-01T10:13:41.766Z,90.50
2018-04-01T10:16:09.607Z,91.20
2018-04-01T10:18:37.281Z,90.90
2018-04-01T10:21:05.038Z,92.50
2018-04-01T10:23:32.679Z,92.60
2018-04-01T10:26:00.376Z,92.30
2018-04-01T10:28:28.066Z,91.70
2018-04-01T10:30:55.774Z,91.60
2018-04-01T10:33:23.460Z,91.80
2018-04-01T10:35:51.121Z,91.30
2018-04-01T10:38:18.602Z,90.00
2018-04-01T10:40:46.121Z,88.30
2018-04-01T10:43:13.570Z,90.40
2018-04-01T10:45:41.026Z,90.40
2018-04-01T10:48:09.524Z,90.70
2018-04-01T10:50:37.001Z,90.70
2018-04-01T10:53:04.485Z,92.30
2018-04-01T10:55:32.262Z,93.40
2018-04-01T10:57:59.283Z,93.40
2018-04-01T11:00:27.027Z,92.70
2018-04-01T11:02:54.003Z,92.80
2018-04-01T11:05:20.961Z,93.10
2018-04-01T11:07:47.927Z,92.30
2018-04-01T11:10:14.939Z,92.20
2018-04-01T11:12:41.958Z,92.90
2018-04-01T11:15:08.918Z,93.20
2018-04-01T11:17:35.883Z,94.00
2018-04-01T11:20:02.900Z,94.80
2018-04-01T11:22:29.871Z,95.30
2018-04-01T11:24:56.858Z,95.10
2018-04-01T11:27:23.846Z,95.50
2018-04-01T11:29:50.816Z,95.40
2018-04-01T11:32:17.801Z,94.30
2018-04-01T11:34:44.812Z,94.00
2018-04-01T11:37:12.549Z,93.50
2018-04-01T11:39:39.550Z,93.40
2018-04-01T11:42:06.524Z,93.70
2018-04-01T11:44:33.483Z,93.30
2018-04-01T11:47:00.459Z,93.10
2018-04-01T11:49:28.182Z,92.40
2018-04-01T11:51:55.152Z,92.40
2018-04-01T11:54:22.108Z,92.40
2018-04-01T11:56:49.880Z,91.00
2018-04-01T11:59:16.843Z,91.00
2018-04-01T12:01:43.803Z,91.10
2018-04-01T12:04:10.808Z,92.10
2018-04-01T12:06:37.758Z,92.60
2018-04-01T12:09:05.495Z,95.40
2018-04-01T12:11:32.462Z,95.40
2018-04-01T12:14:00.637Z,97.30
2018-04-01T12:16:28.365Z,98.40
2018-04-01T12:18:55.372Z,98.30
2018-04-01T12:21:22.421Z,97.30
2018-04-01T12:23:49.432Z,96.90
2018-04-01T12:26:17.157Z,96.50
2018-04-01T12:28:44.132Z,96.10
2018-04-01T12:31:11.854Z,95.80
2018-04-01T12:33:38.829Z,95.80
2018-04-01T12:36:05.778Z,94.60
2018-04-01T12:38:32.750Z,94.60
2018-04-01T12:40:59.741Z,93.30
2018-04-01T12:43:26.689Z,92.80
2018-04-01T12:45:53.673Z,92.00
2018-04-01T12:48:20.678Z,91.90
2018-04-01T12:50:47.641Z,92.00
2018-04-01T12:53:14.626Z,91.70
2018-04-01T12:55:42.478Z,90.50
2018-04-01T12:58:10.240Z,87.50
2018-04-01T13:00:37.963Z,88.90
2018-04-01T13:03:04.939Z,88.70
2018-04-01T13:05:31.896Z,88.10
2018-04-01T13:08:00.265Z,88.40
2018-04-01T13:10:26.606Z,88.40
2018-04-01T13:12:54.367Z,84.30
2018-04-01T13:15:22.218Z,83.30
2018-04-01T13:17:49.246Z,83.20
2018-04-01T13:20:17.015Z,84.60
2018-04-01T13:22:44.004Z,84.50
2018-04-01T13:25:11.208Z,83.50
2018-04-01T13:27:38.254Z,84.90
2018-04-01T13:30:05.295Z,84.30
2018-04-01T13:32:32.356Z,85.10
2018-04-01T13:35:00.214Z,83.60
2018-04-01T13:37:27.358Z,83.60
2018-04-01T13:39:54.347Z,83.10
2018-04-01T13:42:22.068Z,82.70
2018-04-01T13:44:49.186Z,82.80
2018-04-01T13:47:16.191Z,86.00
2018-04-01T13:49:43.926Z,82.70
2018-04-01T13:52:10.897Z,82.50
2018-04-01T13:54:38.833Z,81.10
2018-04-01T13:57:05.794Z,80.90
2018-04-01T13:59:32.910Z,82.00
2018-04-01T14:01:59.905Z,80.80
2018-04-01T14:04:27.657Z,80.60
2018-04-01T14:06:55.497Z,80.60
2018-04-01T14:09:23.603Z,82.00
2018-04-01T14:11:50.705Z,82.00
2018-04-01T14:14:17.707Z,82.30
2018-04-01T14:16:45.466Z,83.50
2018-04-01T14:19:13.192Z,83.70
2018-04-01T14:21:40.189Z,83.60
2018-04-01T14:24:07.154Z,85.00
2018-04-01T14:26:34.135Z,84.70
2018-04-01T14:29:01.109Z,92.30
2018-04-01T14:31:28.950Z,90.40
2018-04-01T14:33:55.979Z,90.50
2018-04-01T14:36:22.998Z,91.00
2018-04-01T14:38:49.977Z,91.60
2018-04-01T14:41:16.937Z,92.80
2018-04-01T14:43:43.929Z,93.00
2018-04-01T14:46:10.898Z,93.50
2018-04-01T14:48:38.795Z,93.70
2018-04-01T14:51:05.864Z,93.10
2018-04-01T14:53:33.610Z,93.00
2018-04-01T14:56:00.691Z,93.00
2018-04-01T14:58:27.640Z,93.10
2018-04-01T15:00:54.650Z,93.30
2018-04-01T15:03:21.620Z,93.20
2018-04-01T15:05:48.652Z,93.20
2018-04-01T15:08:16.401Z,92.10
2018-04-01T15:10:43.362Z,92.00
2018-04-01T15:13:11.118Z,91.40
2018-04-01T15:15:38.080Z,91.40
2018-04-01T15:18:05.059Z,92.10
2018-04-01T15:20:32.036Z,92.10
2018-04-01T15:22:59.003Z,92.00
2018-04-01T15:25:26.758Z,92.20
2018-04-01T15:27:54.491Z,92.30
2018-04-01T15:30:22.265Z,91.70
2018-04-01T15:32:49.225Z,91.70
2018-04-01T15:35:17.005Z,91.90
2018-04-01T15:37:44.854Z,91.80
2018-04-01T15:40:11.923Z,92.30
2018-04-01T15:42:39.654Z,91.70
2018-04-01T15:45:06.644Z,91.70
2018-04-01T15:47:34.386Z,92.00
2018-04-01T15:50:01.386Z,92.00
2018-04-01T15:52:28.386Z,92.30
2018-04-01T15:54:55.366Z,92.90
2018-04-01T15:57:22.337Z,92.60
2018-04-01T15:59:49.282Z,93.90
2018-04-01T16:02:16.473Z,93.50
2018-04-01T16:04:44.329Z,92.20
2018-04-01T16:07:11.401Z,92.40
2018-04-01T16:09:38.357Z,92.90
2018-04-01T16:12:05.322Z,93.50
2018-04-01T16:14:32.303Z,97.10
2018-04-01T16:17:00.075Z,95.20
2018-04-01T16:19:27.798Z,95.00
2018-04-01T16:21:54.783Z,94.70
2018-04-01T16:24:21.834Z,96.90
2018-04-01T16:26:50.730Z,97.50
2018-04-01T16:29:17.723Z,96.30
2018-04-01T16:31:44.709Z,95.00
2018-04-01T16:34:12.561Z,97.40
2018-04-01T16:36:39.675Z,97.40
2018-04-01T16:39:06.668Z,99.40
2018-04-01T16:41:34.429Z,99.90
2018-04-01T16:44:02.172Z,99.90
2018-04-01T16:46:29.150Z,99.90
2018-04-01T16:48:56.183Z,99.90
2018-04-01T16:51:23.923Z,99.90
2018-04-01T16:53:50.949Z,99.90
2018-04-01T16:56:17.964Z,99.90
2018-04-01T16:58:44.981Z,99.90
2018-04-01T17:01:12.759Z,99.90
2018-04-01T17:03:39.745Z,99.90
2018-04-01T17:06:06.764Z,99.90
2018-04-01T17:08:33.749Z,99.90
2018-04-01T17:11:00.705Z,99.90
2018-04-01T17:13:27.669Z,99.90
2018-04-01T17:15:55.477Z,99.90
2018-04-01T17:18:22.545Z,99.90
2018-04-01T17:20:49.516Z,99.90
2018-04-01T17:23:16.493Z,99.90
2018-04-01T17:25:43.501Z,99.90
2018-04-01T17:28:10.466Z,99.90
2018-04-01T17:30:38.192Z,99.90
2018-04-01T17:33:05.178Z,99.90
2018-04-01T17:35:32.898Z,99.90
2018-04-01T17:37:59.861Z,99.90
2018-04-01T17:40:26.898Z,99.90
2018-04-01T17:42:53.975Z,99.90
2018-04-01T17:45:21.827Z,99.90
2018-04-01T17:47:48.836Z,99.90
2018-04-01T17:50:15.795Z,99.90
2018-04-01T17:52:42.758Z,99.90
2018-04-01T17:55:09.765Z,99.90
2018-04-01T17:57:36.733Z,99.90
2018-04-01T18:00:03.702Z,99.90
2018-04-01T18:02:31.427Z,99.90
2018-04-01T18:04:58.389Z,99.90
2018-04-01T18:07:25.347Z,99.90
2018-04-01T18:09:52.328Z,99.90
2018-04-01T18:12:19.282Z,99.90
2018-04-01T18:14:46.901Z,99.90
2018-04-01T18:17:13.243Z,99.90
2018-04-01T18:19:40.979Z,99.90
2018-04-01T18:22:07.975Z,99.90
2018-04-01T18:24:34.958Z,99.90
2018-04-01T18:27:01.923Z,99.90
2018-04-01T18:29:28.981Z,99.90
2018-04-01T18:31:56.023Z,99.90
2018-04-01T18:34:22.986Z,99.90
2018-04-01T18:36:51.009Z,99.90
2018-04-01T18:39:17.981Z,99.90
2018-04-01T18:41:45.793Z,99.90
2018-04-01T18:44:12.757Z,99.90
2018-04-01T18:46:39.836Z,99.90
2018-04-01T18:49:06.863Z,99.90
2018-04-01T18:51:33.837Z,99.90
2018-04-01T18:54:01.642Z,99.90
2018-04-01T18:56:28.703Z,99.90
2018-04-01T18:58:55.683Z,99.90
2018-04-01T19:01:22.661Z,99.90
2018-04-01T19:03:49.624Z,99.90
2018-04-01T19:06:16.672Z,99.90
2018-04-01T19:08:43.648Z,99.90
2018-04-01T19:11:10.636Z,99.90
2018-04-01T19:13:38.478Z,99.90
2018-04-01T19:16:06.710Z,99.90
2018-04-01T19:18:34.156Z,99.90
2018-04-01T19:21:01.635Z,99.90
2018-04-01T19:23:29.338Z,99.90
2018-04-01T19:25:57.575Z,99.90
2018-04-01T19:28:25.119Z,99.90
2018-04-01T19:30:52.609Z,99.90
2018-04-01T19:33:20.130Z,99.90
2018-04-01T19:35:47.622Z,99.90
2018-04-01T19:38:15.098Z,99.90
2018-04-01T19:40:43.356Z,99.90
2018-04-01T19:43:10.889Z,99.90
2018-04-01T19:45:38.370Z,99.90
2018-04-01T19:48:05.976Z,99.90
2018-04-01T19:50:33.495Z,99.90
2018-04-01T19:53:00.967Z,99.90
2018-04-01T19:55:30.251Z,99.90
2018-04-01T19:57:58.485Z,99.90
2018-04-01T20:00:25.995Z,99.90
2018-04-01T20:02:54.235Z,99.90
2018-04-01T20:05:21.921Z,99.90
2018-04-01T20:07:49.382Z,99.90
2018-04-01T20:10:17.048Z,99.90
2018-04-01T20:12:44.490Z,99.90
2018-04-01T20:15:12.581Z,99.90
2018-04-01T20:17:41.181Z,99.90
2018-04-01T20:20:08.672Z,99.90
2018-04-01T20:22:36.201Z,99.90
2018-04-01T20:25:03.658Z,99.90
2018-04-01T20:27:31.198Z,99.90
2018-04-01T20:29:59.534Z,99.90
2018-04-01T20:32:27.036Z,99.90
2018-04-01T20:34:55.408Z,99.90
2018-04-01T20:37:24.728Z,99.90
2018-04-01T20:39:52.438Z,99.90
2018-04-01T20:42:19.878Z,99.90
2018-04-01T20:44:47.338Z,99.90
2018-04-01T20:47:17.294Z,99.90
2018-04-01T20:49:45.501Z,99.90
2018-04-01T20:52:13.695Z,99.90
2018-04-01T20:54:41.236Z,99.90
2018-04-01T20:57:09.532Z,99.90
2018-04-01T20:59:37.721Z,99.90
2018-04-01T21:02:05.569Z,99.90
2018-04-01T21:04:33.008Z,99.90
2018-04-01T21:07:00.475Z,99.90
2018-04-01T21:09:27.978Z,99.90
2018-04-01T21:11:56.611Z,99.90
2018-04-01T21:14:24.114Z,99.90
2018-04-01T21:16:51.571Z,99.90
2018-04-01T21:19:19.021Z,99.90
2018-04-01T21:21:46.492Z,99.90
2018-04-01T21:24:13.950Z,99.90
2018-04-01T21:26:41.413Z,99.90
2018-04-01T21:29:09.650Z,99.90
2018-04-01T21:31:37.090Z,99.90
2018-04-01T21:34:04.582Z,99.90
2018-04-01T21:36:32.026Z,99.90
2018-04-01T21:39:00.212Z,99.90
2018-04-01T21:41:27.649Z,99.90
2018-04-01T21:43:55.156Z,99.90
2018-04-01T21:46:23.471Z,99.90
2018-04-01T21:48:50.915Z,99.90
2018-04-01T21:51:18.450Z,99.90
2018-04-01T21:53:45.917Z,99.90
2018-04-01T21:56:13.376Z,99.90
2018-04-01T21:58:40.859Z,99.90
2018-04-01T22:01:09.435Z,99.90
2018-04-01T22:03:36.890Z,99.90
2018-04-01T22:06:05.008Z,99.90
2018-04-01T22:08:33.302Z,99.90
2018-04-01T22:11:00.818Z,99.90
2018-04-01T22:13:28.293Z,99.90
2018-04-01T22:15:56.610Z,99.90
2018-04-01T22:18:24.070Z,99.90
2018-04-01T22:20:51.648Z,99.90
2018-04-01T22:23:19.106Z,99.90
2018-04-01T22:25:46.553Z,99.90
2018-04-01T22:28:14.038Z,99.90
2018-04-01T22:30:41.504Z,99.90
2018-04-01T22:33:08.967Z,99.90
2018-04-01T22:35:36.988Z,99.90
2018-04-01T22:38:04.526Z,99.90
2018-04-01T22:40:32.098Z,99.90
2018-04-01T22:42:59.584Z,99.90
2018-04-01T22:45:27.045Z,99.90
2018-04-01T22:47:54.539Z,99.90
2018-04-01T22:50:22.779Z,99.90
2018-04-01T22:52:50.229Z,99.90
2018-04-01T22:55:17.696Z,99.90
2018-04-01T22:57:45.155Z,99.90
2018-04-01T23:00:12.602Z,99.90
2018-04-01T23:02:40.101Z,99.90
2018-04-01T23:05:07.587Z,99.90
2018-04-01T23:07:35.055Z,99.90
2018-04-01T23:10:03.066Z,99.90
2018-04-01T23:12:31.309Z,99.90
2018-04-01T23:14:58.774Z,99.90
2018-04-01T23:17:26.272Z,99.90
2018-04-01T23:19:54.494Z,99.90
2018-04-01T23:22:21.946Z,99.90
2018-04-01T23:24:49.451Z,99.90
2018-04-01T23:27:16.913Z,99.90
2018-04-01T23:29:44.429Z,99.90
2018-04-01T23:32:12.712Z,99.90
2018-04-01T23:34:40.241Z,99.90
2018-04-01T23:37:07.754Z,99.90
2018-04-01T23:39:35.978Z,99.90
2018-04-01T23:42:03.453Z,99.90
2018-04-01T23:44:30.949Z,99.90
2018-04-01T23:46:58.423Z,99.90
2018-04-01T23:49:25.983Z,99.90
2018-04-01T23:51:53.489Z,99.90
2018-04-01T23:54:20.936Z,99.90
2018-04-01T23:56:48.393Z,99.90
2018-04-01T23:59:15.859Z,99.90
